Time;durP1;ratioP1;P1;durP2;ratioP2;P2;SDS_P1;SDS_P2;PMS_P1;PMS_P2;Temp;Humidity;BMP_temperature;BMP_pressure;BME280_temperature;BME280_humidity;BME280_pressure;Samples;Min_cycle;Max_cycle;Signal;HPM_P1;HPM_P2
2023/04/12 00:01:20;;;;;;;23.10;3.05;;;;;;;4.73;100.00;98678.41;4902704;29;20093;-96
2023/04/12 00:03:49;;;;;;;21.45;2.53;;;;;;;4.83;100.00;98673.50;4902349;29;20032;-95
2023/04/12 00:06:16;;;;;;;15.10;2.13;;;;;;;4.89;100.00;98683.38;4902655;29;20079;-95
2023/04/12 00:08:45;;;;;;;12.07;2.67;;;;;;;5.08;100.00;98699.19;4902675;29;20020;-95
2023/04/12 00:11:11;;;;;;;9.25;2.33;;;;;;;4.94;100.00;98706.91;4903772;29;20091;-94
2023/04/12 00:13:37;;;;;;;12.65;1.77;;;;;;;4.87;100.00;98696.25;4901585;29;20032;-95
2023/04/12 00:16:02;;;;;;;11.02;1.38;;;;;;;4.60;100.00;98682.59;4902493;29;20463;-96
2023/04/12 00:18:28;;;;;;;9.57;1.45;;;;;;;4.31;100.00;98676.72;4902760;29;20060;-96
2023/04/12 00:20:56;;;;;;;15.95;2.08;;;;;;;4.36;100.00;98664.47;4902661;29;20368;-96
2023/04/12 00:23:22;;;;;;;11.43;1.45;;;;;;;3.98;100.00;98654.84;4902544;29;20028;-96
2023/04/12 00:25:47;;;;;;;10.18;1.42;;;;;;;3.57;100.00;98650.41;4902254;29;20395;-96
2023/04/12 00:28:14;;;;;;;12.63;1.70;;;;;;;3.62;100.00;98661.16;4901574;29;20031;-96
2023/04/12 00:30:40;;;;;;;11.68;2.00;;;;;;;3.78;100.00;98679.78;4901924;29;20107;-96
2023/04/12 00:33:06;;;;;;;8.15;1.42;;;;;;;3.60;100.00;98666.34;4917673;29;20020;-95
2023/04/12 00:35:31;;;;;;;8.57;1.73;;;;;;;3.34;100.00;98655.09;4901764;29;20028;-96
2023/04/12 00:37:56;;;;;;;13.02;1.60;;;;;;;3.58;100.00;98683.47;4901593;29;20081;-95
2023/04/12 00:40:22;;;;;;;9.15;1.27;;;;;;;3.38;100.00;98655.72;4901761;29;20042;-95
2023/04/12 00:42:47;;;;;;;11.35;2.90;;;;;;;3.54;100.00;98679.47;4901857;29;20028;-95
2023/04/12 00:45:13;;;;;;;14.93;2.08;;;;;;;3.52;100.00;98665.97;4901733;29;20039;-96
2023/04/12 00:47:41;;;;;;;7.30;1.30;;;;;;;3.56;100.00;98656.41;4901727;29;20024;-95
2023/04/12 00:50:08;;;;;;;14.82;1.80;;;;;;;3.82;100.00;98665.91;4902020;29;20130;-95
2023/04/12 00:52:34;;;;;;;10.18;1.92;;;;;;;3.83;100.00;98661.66;4917186;29;20388;-95
2023/04/12 00:55:03;;;;;;;14.88;2.22;;;;;;;4.01;100.00;98652.09;4917377;29;20020;-96
2023/04/12 00:57:38;;;;;;;7.97;1.05;;;;;;;3.81;100.00;98664.28;4900878;29;20091;-96
2023/04/12 01:00:07;;;;;;;8.70;1.38;;;;;;;3.94;100.00;98684.81;4916220;29;20032;-96
2023/04/12 01:02:33;;;;;;;12.88;1.70;;;;;;;3.78;100.00;98656.81;4901206;29;20027;-96
2023/04/12 01:04:59;;;;;;;12.27;1.40;;;;;;;3.73;100.00;98665.63;4903210;29;20032;-96
2023/04/12 01:07:53;;;;;;;11.48;1.40;;;;;;;4.17;100.00;98701.34;4905238;29;20192;-95
2023/04/12 01:10:30;;;;;;;7.57;1.65;;;;;;;4.15;100.00;98708.28;4903377;29;20055;-96
2023/04/12 01:13:05;;;;;;;10.45;1.60;;;;;;;4.44;100.00;98737.19;4901120;29;20040;-95
2023/04/12 01:15:33;;;;;;;6.88;1.00;;;;;;;4.10;100.00;98694.97;4901955;29;20043;-96
2023/04/12 01:18:22;;;;;;;7.57;1.40;;;;;;;4.03;100.00;98678.34;4901249;29;20034;-95
2023/04/12 01:21:00;;;;;;;6.38;1.05;;;;;;;3.96;100.00;98679.63;4916943;29;20115;-94
2023/04/12 01:23:56;;;;;;;5.97;1.15;;;;;;;3.70;100.00;98683.69;4916537;29;20024;-95
2023/04/12 01:26:31;;;;;;;4.78;0.73;;;;;;;3.21;100.00;98689.81;4900961;29;20054;-95
2023/04/12 01:28:59;;;;;;;5.82;0.80;;;;;;;3.02;100.00;98677.25;4899836;29;20028;-95
2023/04/12 01:31:28;;;;;;;10.77;1.65;;;;;;;3.24;100.00;98684.53;4900677;29;20024;-96
2023/04/12 01:33:56;;;;;;;4.95;0.90;;;;;;;3.03;100.00;98655.97;4900803;29;20024;-96
2023/04/12 01:36:25;;;;;;;6.90;1.15;;;;;;;3.29;100.00;98687.69;4901089;29;20036;-96
2023/04/12 01:38:51;;;;;;;7.38;1.20;;;;;;;3.20;100.00;98681.34;4900812;29;20076;-95
2023/04/12 01:41:17;;;;;;;12.25;1.90;;;;;;;3.41;100.00;98646.19;4932754;29;20028;-95
2023/04/12 01:43:43;;;;;;;7.10;1.08;;;;;;;3.48;100.00;98677.25;4901451;29;20488;-96
2023/04/12 01:46:10;;;;;;;11.75;1.25;;;;;;;3.18;100.00;98654.28;4900779;29;20028;-96
2023/04/12 01:48:38;;;;;;;6.05;1.00;;;;;;;3.36;100.00;98658.34;4900890;29;20479;-96
2023/04/12 01:51:16;;;;;;;5.35;1.48;;;;;;;3.48;100.00;98668.78;4900678;29;20127;-96
2023/04/12 01:53:49;;;;;;;4.03;1.10;;;;;;;3.50;100.00;98664.41;4900686;29;20047;-96
2023/04/12 01:56:17;;;;;;;10.85;1.58;;;;;;;3.60;100.00;98680.81;4900703;29;20119;-95
2023/04/12 01:58:45;;;;;;;6.57;1.38;;;;;;;3.63;100.00;98609.22;4899702;29;20043;-95
2023/04/12 02:01:14;;;;;;;7.82;1.80;;;;;;;3.56;100.00;98630.88;4900154;29;20032;-95
2023/04/12 02:03:43;;;;;;;6.07;1.00;;;;;;;3.33;100.00;98638.13;4900809;29;20028;-96
2023/04/12 02:06:10;;;;;;;7.18;1.40;;;;;;;3.04;100.00;98609.19;4900525;29;20300;-96
2023/04/12 02:08:36;;;;;;;9.82;1.05;;;;;;;2.97;100.00;98623.97;4899888;29;20036;-95
2023/04/12 02:11:08;;;;;;;7.78;1.50;;;;;;;2.79;100.00;98635.19;4899844;29;20032;-96
2023/04/12 02:13:33;;;;;;;7.38;1.20;;;;;;;2.43;100.00;98615.06;4900576;29;20134;-96
2023/04/12 02:16:01;;;;;;;5.75;1.35;;;;;;;2.62;100.00;98633.56;4916127;29;20123;-96
2023/04/12 02:18:26;;;;;;;2.55;0.70;;;;;;;2.40;100.00;98594.88;4900253;29;20032;-95
2023/04/12 02:20:52;;;;;;;8.27;1.45;;;;;;;2.51;100.00;98613.78;4900016;29;20032;-95
2023/04/12 02:23:17;;;;;;;11.45;1.35;;;;;;;2.44;100.00;98619.25;4916079;29;20031;-95
2023/04/12 02:25:45;;;;;;;4.13;1.02;;;;;;;2.42;100.00;98606.63;4915821;29;20033;-96
2023/04/12 02:28:12;;;;;;;7.35;1.20;;;;;;;2.39;100.00;98626.31;4914617;29;20024;-95
2023/04/12 02:30:40;;;;;;;8.45;1.20;;;;;;;2.33;100.00;98623.19;4899955;29;20036;-96
2023/04/12 02:33:08;;;;;;;12.73;2.22;;;;;;;2.46;100.00;98620.00;4900173;29;20029;-95
2023/04/12 02:35:35;;;;;;;10.32;1.55;;;;;;;2.23;100.00;98598.31;4900156;29;20088;-95
2023/04/12 02:38:02;;;;;;;2.38;0.68;;;;;;;2.43;100.00;98627.81;4899985;29;20020;-94
2023/04/12 02:40:28;;;;;;;7.25;1.42;;;;;;;2.29;100.00;98605.63;4899685;29;20115;-96
2023/04/12 02:42:54;;;;;;;9.60;1.83;;;;;;;2.52;100.00;98620.50;4900083;29;20052;-94
2023/04/12 02:45:20;;;;;;;6.07;1.30;;;;;;;2.59;100.00;98617.63;4915793;29;20149;-95
2023/04/12 02:47:45;;;;;;;10.52;1.20;;;;;;;2.60;100.00;98599.72;4899791;29;20060;-95
2023/04/12 02:50:11;;;;;;;9.55;0.90;;;;;;;2.83;100.00;98607.81;4900130;29;20521;-95
2023/04/12 02:52:36;;;;;;;10.50;1.50;;;;;;;2.83;100.00;98601.00;4899825;29;20032;-95
2023/04/12 02:55:02;;;;;;;7.03;1.17;;;;;;;2.78;100.00;98570.69;4898740;29;20071;-95
2023/04/12 02:57:28;;;;;;;5.10;1.25;;;;;;;2.65;100.00;98563.81;4898508;29;20115;-95
2023/04/12 02:59:53;;;;;;;5.22;1.02;;;;;;;2.50;100.00;98575.66;4915309;29;20039;-95
2023/04/12 03:02:22;;;;;;;10.23;1.05;;;;;;;2.48;100.00;98588.47;4899955;29;20463;-95
2023/04/12 03:04:49;;;;;;;7.00;1.45;;;;;;;2.42;100.00;98578.63;4900034;29;20056;-95
2023/04/12 03:07:17;;;;;;;6.93;1.13;;;;;;;2.31;100.00;98568.19;4915592;29;20028;-96
2023/04/12 03:09:44;;;;;;;11.02;1.27;;;;;;;2.16;100.00;98576.63;4899590;29;20036;-94
2023/04/12 03:12:09;;;;;;;7.88;1.00;;;;;;;2.06;100.00;98568.66;4899679;29;20394;-95
2023/04/12 03:14:35;;;;;;;12.43;1.40;;;;;;;1.98;100.00;98542.81;4899683;29;20024;-95
2023/04/12 03:17:00;;;;;;;8.70;1.33;;;;;;;1.93;100.00;98545.59;4915613;29;20035;-95
2023/04/12 03:19:27;;;;;;;12.05;3.28;;;;;;;1.70;100.00;98545.06;4899549;29;20039;-96
2023/04/12 03:21:52;;;;;;;8.48;1.25;;;;;;;1.73;100.00;98553.44;4901955;29;20534;-95
2023/04/12 03:24:17;;;;;;;9.68;1.75;;;;;;;1.77;100.00;98560.81;4902231;29;20115;-95
2023/04/12 03:26:43;;;;;;;7.28;1.17;;;;;;;1.76;100.00;98543.13;4918911;29;20211;-95
2023/04/12 03:29:08;;;;;;;11.90;1.58;;;;;;;1.71;100.00;98526.38;4902948;29;20051;-95
2023/04/12 03:31:34;;;;;;;10.25;1.25;;;;;;;1.54;100.00;98528.97;4902956;29;20028;-94
2023/04/12 03:34:00;;;;;;;4.03;1.02;;;;;;;1.57;100.00;98538.97;4902832;29;20057;-94
2023/04/12 03:36:26;;;;;;;13.63;1.30;;;;;;;1.64;100.00;98514.88;4902788;29;20024;-95
2023/04/12 03:38:52;;;;;;;13.32;1.48;;;;;;;1.60;100.00;98508.28;4902712;29;20028;-95
2023/04/12 03:41:18;;;;;;;11.15;1.55;;;;;;;1.74;100.00;98519.47;4902710;29;20028;-94
2023/04/12 03:43:43;;;;;;;10.90;1.95;;;;;;;1.77;100.00;98532.03;4902594;29;20142;-94
2023/04/12 03:46:08;;;;;;;10.27;1.30;;;;;;;2.01;100.00;98522.28;4902807;29;20483;-94
2023/04/12 03:48:35;;;;;;;11.23;2.00;;;;;;;2.19;100.00;98545.94;4902516;29;20028;-95
2023/04/12 03:51:07;;;;;;;10.00;1.50;;;;;;;2.31;100.00;98525.72;4902423;29;20024;-95
2023/04/12 03:53:33;;;;;;;9.90;1.55;;;;;;;2.44;100.00;98536.06;4901700;29;20059;-96
2023/04/12 03:55:59;;;;;;;14.20;1.90;;;;;;;2.61;100.00;98529.22;4902454;29;20028;-95
2023/04/12 03:58:24;;;;;;;13.60;1.92;;;;;;;2.54;100.00;98521.13;4902313;29;20031;-94
2023/04/12 04:00:49;;;;;;;17.88;2.13;;;;;;;2.59;100.00;98514.03;4917830;29;20031;-94
2023/04/12 04:03:15;;;;;;;13.40;2.00;;;;;;;2.69;100.00;98516.88;4902131;29;20032;-95
2023/04/12 04:05:41;;;;;;;11.60;2.58;;;;;;;2.77;100.00;98512.19;4902338;29;20549;-96
2023/04/12 04:08:07;;;;;;;19.50;2.28;;;;;;;2.82;100.00;98505.09;4901613;29;20036;-93
2023/04/12 04:10:33;;;;;;;21.65;2.35;;;;;;;2.86;100.00;98509.13;4902196;29;20056;-95
2023/04/12 04:12:58;;;;;;;15.00;1.70;;;;;;;2.88;100.00;98509.84;4917972;29;20079;-94
2023/04/12 04:15:25;;;;;;;14.45;2.13;;;;;;;2.88;100.00;98502.22;4902253;29;20479;-96
2023/04/12 04:17:51;;;;;;;14.57;2.25;;;;;;;2.92;100.00;98506.19;4917476;29;20025;-96
2023/04/12 04:20:17;;;;;;;14.23;1.60;;;;;;;3.17;100.00;98515.81;4901783;29;20023;-96
2023/04/12 04:22:44;;;;;;;9.60;1.65;;;;;;;3.14;100.00;98504.97;4901663;29;20079;-96
2023/04/12 04:25:13;;;;;;;13.50;1.60;;;;;;;3.32;100.00;98533.69;4901202;29;20050;-96
2023/04/12 04:27:39;;;;;;;18.80;1.55;;;;;;;3.16;100.00;98492.97;4902946;29;20035;-93
2023/04/12 04:30:05;;;;;;;16.95;3.03;;;;;;;3.11;100.00;98475.38;4906589;29;20111;-94
2023/04/12 04:32:32;;;;;;;14.40;1.35;;;;;;;3.06;100.00;98491.88;4906492;29;20020;-96
2023/04/12 04:34:58;;;;;;;10.25;2.20;;;;;;;2.91;100.00;98496.94;4901852;29;20108;-96
2023/04/12 04:37:29;;;;;;;12.70;2.30;;;;;;;2.90;100.00;98480.00;4901658;29;20055;-95
2023/04/12 04:39:55;;;;;;;9.95;2.42;;;;;;;2.79;100.00;98484.88;4901909;29;20028;-94
2023/04/12 04:42:20;;;;;;;8.68;1.63;;;;;;;2.68;100.00;98488.06;4917316;29;20078;-95
2023/04/12 04:44:49;;;;;;;10.40;1.42;;;;;;;2.38;100.00;98470.22;4902030;29;20056;-96
2023/04/12 04:47:15;;;;;;;19.30;2.38;;;;;;;2.39;100.00;98479.50;4901832;29;20071;-96
2023/04/12 04:49:42;;;;;;;11.27;1.67;;;;;;;2.10;100.00;98461.56;4901451;29;20028;-95
2023/04/12 04:52:08;;;;;;;5.43;1.08;;;;;;;2.07;100.00;98466.81;4901339;29;20032;-96
2023/04/12 04:54:33;;;;;;;9.57;1.17;;;;;;;2.10;100.00;98456.47;4888974;29;20068;-96
2023/04/12 04:57:00;;;;;;;8.60;1.10;;;;;;;2.20;100.00;98476.31;4901423;29;20024;-95
2023/04/12 04:59:25;;;;;;;5.65;1.08;;;;;;;2.05;100.00;98472.88;4901544;29;20111;-95
2023/04/12 05:01:51;;;;;;;10.85;1.23;;;;;;;1.99;100.00;98478.28;4916913;29;20114;-95
2023/04/12 05:04:16;;;;;;;7.35;1.23;;;;;;;1.96;100.00;98446.22;4901023;29;20080;-95
2023/04/12 05:06:42;;;;;;;6.88;1.35;;;;;;;1.84;100.00;98455.31;4916421;29;20028;-96
2023/04/12 05:09:07;;;;;;;6.72;1.27;;;;;;;1.62;100.00;98442.91;4900894;29;20498;-93
2023/04/12 05:11:33;;;;;;;9.88;1.48;;;;;;;1.74;100.00;98438.91;4901230;29;20044;-95
2023/04/12 05:13:58;;;;;;;13.80;1.88;;;;;;;1.84;100.00;98462.13;4900280;29;20053;-94
2023/04/12 05:16:24;;;;;;;20.90;4.18;;;;;;;1.78;100.00;98442.09;4901361;29;20020;-94
2023/04/12 05:18:50;;;;;;;13.27;1.83;;;;;;;1.72;100.00;98425.44;4916867;29;20028;-96
2023/04/12 05:21:15;;;;;;;7.57;1.08;;;;;;;1.58;100.00;98433.00;4900655;29;20058;-94
2023/04/12 05:23:44;;;;;;;12.57;1.83;;;;;;;1.66;100.00;98462.22;4900660;29;20039;-94
2023/04/12 05:26:10;;;;;;;8.13;1.38;;;;;;;1.65;100.00;98460.56;4916680;29;20119;-94
2023/04/12 05:28:35;;;;;;;19.70;1.95;;;;;;;1.82;100.00;98443.59;4900665;29;20107;-94
2023/04/12 05:31:01;;;;;;;9.88;1.33;;;;;;;1.76;100.00;98443.94;4901424;29;20520;-94
2023/04/12 05:33:26;;;;;;;7.95;1.42;;;;;;;1.74;100.00;98438.09;4901561;29;20519;-95
2023/04/12 05:35:52;;;;;;;11.90;1.30;;;;;;;1.69;100.00;98418.81;4901286;29;20028;-95
2023/04/12 05:38:17;;;;;;;8.40;1.45;;;;;;;1.94;100.00;98442.91;4901252;29;20096;-94
2023/04/12 05:40:43;;;;;;;12.63;1.90;;;;;;;1.81;100.00;98419.06;4916281;29;20024;-94
2023/04/12 05:43:11;;;;;;;8.32;1.63;;;;;;;1.87;100.00;98439.06;4899934;29;20035;-94
2023/04/12 05:45:38;;;;;;;12.95;2.38;;;;;;;1.83;100.00;98418.09;4900390;29;20044;-94
2023/04/12 05:48:03;;;;;;;9.55;2.28;;;;;;;1.99;100.00;98428.22;4900531;29;20051;-94
2023/04/12 05:50:29;;;;;;;15.43;2.97;;;;;;;2.04;100.00;98451.69;4902876;29;20122;-95
2023/04/12 05:53:28;;;;;;;17.17;3.42;;;;;;;1.99;100.00;98433.31;4917978;29;20303;-96
2023/04/12 05:55:55;;;;;;;11.75;2.80;;;;;;;1.85;100.00;98412.88;4909549;29;20078;-96
2023/04/12 05:58:26;;;;;;;16.52;3.83;;;;;;;1.97;100.00;98396.97;4909920;29;20043;-96
2023/04/12 06:01:05;;;;;;;15.05;3.97;;;;;;;2.04;100.00;98405.91;4927967;29;20056;-96
2023/04/12 06:03:40;;;;;;;25.50;4.72;;;;;;;2.26;100.00;98419.97;4920810;29;20044;-96
2023/04/12 06:06:12;;;;;;;14.70;5.55;;;;;;;2.48;100.00;98420.41;4921480;29;20047;-96
2023/04/12 06:08:43;;;;;;;18.00;4.35;;;;;;;2.82;100.00;98407.47;4906941;29;20031;-96
2023/04/12 06:11:10;;;;;;;11.43;4.63;;;;;;;3.23;100.00;98397.38;4912622;29;20044;-96
2023/04/12 06:13:39;;;;;;;16.08;2.90;;;;;;;3.38;100.00;98401.53;4904141;29;20131;-96
2023/04/12 06:16:05;;;;;;;17.17;3.38;;;;;;;3.26;100.00;98414.22;4902075;29;20028;-94
2023/04/12 06:18:31;;;;;;;9.68;2.13;;;;;;;3.17;100.00;98382.44;4899795;29;20084;-96
2023/04/12 06:20:56;;;;;;;11.77;2.65;;;;;;;3.51;100.00;98416.09;4900349;29;20060;-94
2023/04/12 06:23:22;;;;;;;17.27;2.67;;;;;;;3.68;100.00;98432.91;4901115;29;20031;-94
2023/04/12 06:25:49;;;;;;;10.68;1.38;;;;;;;3.74;100.00;98395.09;4901367;29;20127;-96
2023/04/12 06:28:15;;;;;;;11.13;2.17;;;;;;;4.08;100.00;98426.16;4886813;29;20029;-96
2023/04/12 06:30:40;;;;;;;16.45;1.92;;;;;;;4.35;100.00;98433.00;4899441;29;20038;-95
2023/04/12 06:33:06;;;;;;;9.75;1.15;;;;;;;4.29;100.00;98431.63;4902219;29;20133;-96
2023/04/12 06:35:31;;;;;;;7.75;1.75;;;;;;;4.31;100.00;98439.19;4899966;29;20028;-94
2023/04/12 06:37:56;;;;;;;8.88;1.80;;;;;;;4.42;100.00;98445.25;4899249;29;20506;-95
2023/04/12 06:40:22;;;;;;;5.88;1.48;;;;;;;4.44;100.00;98427.31;4898508;29;20035;-94
2023/04/12 06:42:47;;;;;;;8.15;1.73;;;;;;;4.34;100.00;98416.00;4899778;29;20455;-94
2023/04/12 06:45:13;;;;;;;9.10;1.10;;;;;;;4.35;100.00;98427.88;4917501;29;20111;-95
2023/04/12 06:47:38;;;;;;;9.27;2.10;;;;;;;4.20;100.00;98419.47;4900695;29;20024;-94
2023/04/12 06:50:05;;;;;;;8.65;1.63;;;;;;;4.33;100.00;98424.59;4900259;29;20051;-94
2023/04/12 06:52:38;;;;;;;13.18;1.08;;;;;;;4.40;100.00;98426.66;4902620;29;20040;-96
2023/04/12 06:55:05;;;;;;;9.55;1.60;;;;;;;4.28;100.00;98430.00;4901335;29;20024;-93
2023/04/12 06:57:30;;;;;;;5.25;1.27;;;;;;;4.25;100.00;98428.47;4902766;29;20024;-94
2023/04/12 06:59:55;;;;;;;9.35;2.38;;;;;;;4.35;100.00;98422.78;4902310;29;20036;-95
2023/04/12 07:02:24;;;;;;;9.27;2.63;;;;;;;4.39;100.00;98398.66;4902238;29;20032;-96
2023/04/12 07:04:53;;;;;;;8.20;1.50;;;;;;;5.04;100.00;98415.69;4919463;29;20127;-95
2023/04/12 07:07:22;;;;;;;10.98;2.17;;;;;;;5.86;100.00;98393.81;4901727;29;20036;-95
2023/04/12 07:09:47;;;;;;;5.13;1.05;;;;;;;6.03;98.12;98394.41;4901916;29;20035;-96
2023/04/12 07:12:13;;;;;;;7.47;1.40;;;;;;;5.72;96.73;98374.28;4917292;29;20032;-95
2023/04/12 07:14:38;;;;;;;6.28;1.08;;;;;;;7.02;90.84;98384.50;4905656;29;20028;-96
2023/04/12 07:17:04;;;;;;;5.45;1.20;;;;;;;7.28;85.78;98384.25;4901994;29;20059;-95
2023/04/12 07:19:30;;;;;;;7.70;1.20;;;;;;;6.85;87.01;98369.53;4902040;29;20032;-94
2023/04/12 07:21:56;;;;;;;5.93;1.40;;;;;;;7.14;84.19;98351.13;4909386;29;20040;-95
2023/04/12 07:24:21;;;;;;;5.82;1.13;;;;;;;7.63;84.93;98373.81;4937761;29;20067;-94
2023/04/12 07:26:47;;;;;;;5.10;1.17;;;;;;;7.91;80.41;98372.44;4903518;29;20032;-95
2023/04/12 07:29:12;;;;;;;5.03;1.17;;;;;;;7.94;77.77;98373.97;4923479;29;20031;-93
2023/04/12 07:31:37;;;;;;;5.90;1.65;;;;;;;8.00;77.79;98370.91;4921359;29;20032;-93
2023/04/12 07:34:03;;;;;;;13.52;1.45;;;;;;;7.92;77.68;98373.25;4902781;29;20091;-96
2023/04/12 07:36:28;;;;;;;7.32;1.35;;;;;;;7.31;78.59;98380.63;4903164;29;20097;-94
2023/04/12 07:38:54;;;;;;;6.10;1.67;;;;;;;8.04;75.02;98366.34;4902211;29;20466;-95
2023/04/12 07:41:24;;;;;;;5.10;1.10;;;;;;;11.01;65.90;98357.13;4905238;29;20035;-96
2023/04/12 07:43:50;;;;;;;7.22;1.30;;;;;;;11.32;60.46;98355.09;4904315;29;20367;-93
2023/04/12 07:46:15;;;;;;;5.70;1.10;;;;;;;12.09;58.82;98360.72;4902626;29;20028;-92
2023/04/12 07:48:42;;;;;;;6.68;1.15;;;;;;;14.25;53.88;98376.91;4922899;29;20054;-93
2023/04/12 07:51:08;;;;;;;11.13;1.00;;;;;;;14.69;50.04;98371.38;4905399;29;20028;-95
2023/04/12 07:53:33;;;;;;;4.47;1.05;;;;;;;13.93;50.82;98357.75;4897410;29;20036;-93
2023/04/12 07:55:59;;;;;;;4.57;0.90;;;;;;;14.81;51.54;98349.28;4883357;29;20024;-93
2023/04/12 07:58:24;;;;;;;7.00;1.23;;;;;;;16.40;46.18;98328.03;4906732;29;20394;-93
2023/04/12 08:00:52;;;;;;;6.10;1.00;;;;;;;19.49;42.59;98318.41;4901929;29;20024;-94
2023/04/12 08:03:18;;;;;;;4.63;1.15;;;;;;;19.69;38.70;98319.28;4901041;29;20024;-93
2023/04/12 08:05:44;;;;;;;5.25;1.55;;;;;;;20.40;36.77;98346.72;4901604;29;20043;-93
2023/04/12 08:08:10;;;;;;;3.10;0.60;;;;;;;20.14;35.85;98347.53;4916495;29;20076;-93
2023/04/12 08:10:37;;;;;;;5.18;0.70;;;;;;;21.86;35.23;98324.44;4920389;29;20118;-94
2023/04/12 08:13:03;;;;;;;3.67;0.65;;;;;;;20.87;34.03;98311.59;4906512;29;20482;-96
2023/04/12 08:15:28;;;;;;;1.30;0.40;;;;;;;22.32;33.20;98299.66;4888997;29;20036;-93
2023/04/12 08:17:54;;;;;;;2.78;0.82;;;;;;;20.65;34.39;98302.38;4904684;29;20364;-95
2023/04/12 08:20:20;;;;;;;2.67;0.45;;;;;;;23.42;32.22;98312.81;4931815;29;20501;-93
2023/04/12 08:22:51;;;;;;;1.88;0.40;;;;;;;24.48;29.51;98297.22;4905545;29;20386;-96
2023/04/12 08:25:38;;;;;;;;;;;;;;;;;;;;;
2023/04/12 08:28:19;;;;;;;3.35;0.55;;;;;;;26.42;27.61;98318.41;4918697;29;20044;-96
2023/04/12 08:30:44;;;;;;;4.68;0.75;;;;;;;26.75;26.54;98311.50;4917546;29;20032;-96
2023/04/12 08:33:10;;;;;;;4.05;0.75;;;;;;;28.29;26.91;98300.53;4914264;29;20451;-94
2023/04/12 08:35:35;;;;;;;4.22;0.80;;;;;;;26.39;26.65;98305.69;4902473;29;20022;-95
2023/04/12 08:38:09;;;;;;;3.53;0.93;;;;;;;27.19;25.44;98311.50;4916850;29;20036;-96
2023/04/12 08:40:35;;;;;;;4.15;0.75;;;;;;;27.49;26.38;98299.63;4928576;29;20067;-95
2023/04/12 08:43:05;;;;;;;4.72;1.38;;;;;;;26.76;27.06;98278.69;4910706;29;20068;-95
2023/04/12 08:45:32;;;;;;;5.20;1.50;;;;;;;25.19;27.60;98286.53;4907271;29;20032;-94
2023/04/12 08:48:00;;;;;;;7.88;1.55;;;;;;;26.20;25.69;98267.34;4907580;29;20024;-95
2023/04/12 08:50:26;;;;;;;6.05;1.08;;;;;;;25.55;27.02;98250.16;4927331;29;20035;-95
2023/04/12 08:52:52;;;;;;;4.00;1.10;;;;;;;23.92;28.41;98265.09;4905007;29;20029;-95
2023/04/12 08:55:17;;;;;;;12.85;1.77;;;;;;;24.25;27.43;98258.44;4903777;29;20031;-95
2023/04/12 08:57:43;;;;;;;12.23;2.15;;;;;;;23.17;29.75;98246.34;4922646;29;20039;-94
2023/04/12 09:00:10;;;;;;;3.85;1.23;;;;;;;25.53;28.02;98262.81;4908426;29;20028;-94
2023/04/12 09:02:36;;;;;;;5.30;1.65;;;;;;;26.72;25.02;98253.75;4933300;29;20506;-96
2023/04/12 09:05:02;;;;;;;10.05;1.73;;;;;;;25.89;26.07;98237.00;4903106;29;20047;-95
2023/04/12 09:07:29;;;;;;;7.22;1.52;;;;;;;22.60;28.76;98201.88;4918931;29;20024;-96
2023/04/12 09:09:56;;;;;;;7.93;1.15;;;;;;;19.78;33.38;98186.44;4919394;29;20031;-96
2023/04/12 09:12:23;;;;;;;6.70;1.75;;;;;;;14.85;42.23;98155.78;4913873;29;20032;-96
2023/04/12 09:15:07;;;;;;;9.75;1.40;;;;;;;13.09;45.93;98175.53;4909243;29;20028;-95
2023/04/12 09:17:35;;;;;;;7.80;1.55;;;;;;;11.90;48.95;98168.63;4910706;29;20042;-95
2023/04/12 09:20:08;;;;;;;11.85;1.63;;;;;;;10.38;50.17;98136.72;4913299;29;20008;-93
2023/04/12 09:22:34;;;;;;;14.80;2.13;;;;;;;10.76;50.79;98123.78;4928606;29;20067;-93
2023/04/12 09:25:00;;;;;;;11.98;1.92;;;;;;;13.88;42.98;98121.44;4911617;29;20047;-95
2023/04/12 09:27:28;;;;;;;6.40;1.70;;;;;;;14.99;41.43;98121.25;4918482;28;20016;-94
2023/04/12 09:30:08;;;;;;;6.47;1.23;;;;;;;13.58;44.17;98110.81;4919851;29;20047;-94
2023/04/12 09:32:33;;;;;;;12.85;2.00;;;;;;;13.88;43.35;98091.13;4926791;29;20040;-94
2023/04/12 09:35:04;;;;;;;9.00;1.90;;;;;;;13.45;44.48;98084.59;4914710;29;20027;-93
2023/04/12 09:37:29;;;;;;;12.73;2.40;;;;;;;11.90;46.63;98111.75;4900366;29;20056;-93
2023/04/12 09:40:06;;;;;;;9.63;1.70;;;;;;;10.34;50.44;98067.53;4911177;29;20032;-95
2023/04/12 09:42:47;;;;;;;9.07;1.42;;;;;;;10.42;51.90;98054.75;4906812;29;20032;-93
2023/04/12 09:45:21;;;;;;;13.07;2.53;;;;;;;10.61;50.64;98044.31;4933899;29;20028;-94
2023/04/12 09:47:52;;;;;;;10.05;1.70;;;;;;;11.55;47.93;98035.94;4918252;29;20439;-95
2023/04/12 09:50:23;;;;;;;18.20;3.65;;;;;;;10.21;50.57;98032.56;4918449;29;20100;-94
2023/04/12 09:52:50;;;;;;;9.48;1.85;;;;;;;10.66;51.25;98036.94;4911592;29;20052;-96
2023/04/12 09:55:17;;;;;;;9.52;1.95;;;;;;;9.97;53.94;97998.81;4915224;29;20099;-96
2023/04/12 09:57:44;;;;;;;8.90;1.80;;;;;;;10.49;51.40;97992.13;4913323;29;20034;-94
2023/04/12 10:00:15;;;;;;;9.80;2.00;;;;;;;10.11;52.83;98008.63;4910314;29;20044;-94
2023/04/12 10:02:43;;;;;;;12.27;2.65;;;;;;;9.17;54.46;97977.88;4914689;29;20028;-95
2023/04/12 10:05:16;;;;;;;12.63;2.38;;;;;;;9.46;55.73;97994.97;4907961;29;20033;-94
2023/04/12 10:07:43;;;;;;;16.02;2.13;;;;;;;9.34;57.90;97966.84;4908661;29;20040;-94
2023/04/12 10:10:13;;;;;;;10.15;2.20;;;;;;;9.68;58.90;97988.66;4926268;29;20028;-94
2023/04/12 10:12:40;;;;;;;14.00;2.00;;;;;;;11.23;53.01;97972.00;4917320;29;20052;-94
2023/04/12 10:15:11;;;;;;;17.90;1.80;;;;;;;11.54;49.88;97963.78;4917040;29;20063;-92
2023/04/12 10:17:52;;;;;;;13.00;1.83;;;;;;;11.10;53.11;98000.81;4928763;29;20056;-93
2023/04/12 10:20:19;;;;;;;18.43;2.73;;;;;;;9.53;57.87;98026.94;4892401;29;20038;-95
2023/04/12 10:22:50;;;;;;;14.68;2.30;;;;;;;8.53;67.74;98018.69;4893443;29;20032;-94
2023/04/12 10:25:20;;;;;;;14.35;1.75;;;;;;;7.72;69.92;98064.97;4907962;29;20023;-94
2023/04/12 10:27:46;;;;;;;10.25;1.75;;;;;;;7.05;80.45;98050.81;4907702;29;20044;-96
2023/04/12 10:30:28;;;;;;;9.90;1.40;;;;;;;7.13;82.35;98046.81;4907030;29;20145;-95
2023/04/12 10:33:13;;;;;;;14.38;2.25;;;;;;;9.27;78.35;97996.69;4911151;29;20047;-95
2023/04/12 10:36:09;;;;;;;8.25;1.70;;;;;;;10.82;69.86;97994.16;4899123;29;20052;-95
2023/04/12 10:39:08;;;;;;;13.98;2.50;;;;;;;8.29;74.83;98020.78;4920125;29;20055;-95
2023/04/12 10:41:34;;;;;;;13.93;2.65;;;;;;;8.15;82.08;98001.44;4910757;29;20068;-95
2023/04/12 10:44:23;;;;;;;15.00;1.58;;;;;;;12.67;63.41;97961.59;4915982;29;20039;-95
2023/04/12 10:46:48;;;;;;;14.50;2.35;;;;;;;11.23;63.16;97928.13;4917124;29;20095;-95
2023/04/12 10:49:15;;;;;;;12.82;1.58;;;;;;;10.25;64.48;97930.81;4912762;29;20475;-96
2023/04/12 10:52:09;;;;;;;11.25;1.42;;;;;;;9.82;67.34;97934.88;4892028;29;20124;-96
2023/04/12 10:54:35;;;;;;;9.88;1.88;;;;;;;8.50;69.75;97903.25;4935462;29;20028;-96
2023/04/12 10:57:02;;;;;;;10.60;1.83;;;;;;;8.26;71.94;97918.25;4892996;29;20096;-95
2023/04/12 10:59:56;;;;;;;13.77;1.90;;;;;;;8.01;73.48;97894.72;4920644;29;20036;-96
2023/04/12 11:02:21;;;;;;;14.43;1.65;;;;;;;7.78;73.01;97908.75;4908835;29;20138;-95
2023/04/12 11:05:09;;;;;;;10.02;1.55;;;;;;;7.85;75.68;97899.56;4920635;29;20052;-96
2023/04/12 11:07:49;;;;;;;16.23;1.85;;;;;;;7.40;72.68;97864.09;4915864;29;20032;-96
2023/04/12 11:10:20;;;;;;;11.68;1.42;;;;;;;7.67;70.48;97848.88;5171437;23;20040;-96
2023/04/12 11:12:51;;;;;;;8.40;1.93;;;;;;;7.78;69.46;97852.25;4913588;29;20040;-95
2023/04/12 11:15:17;;;;;;;14.10;2.27;;;;;;;7.63;71.31;97849.28;4914868;29;20263;-95
2023/04/12 11:17:52;;;;;;;16.75;2.22;;;;;;;7.19;78.20;97867.53;4929232;29;20274;-95
2023/04/12 11:20:19;;;;;;;26.30;2.10;;;;;;;6.38;94.88;97881.97;4894078;29;20033;-96
2023/04/12 11:22:44;;;;;;;11.75;2.47;;;;;;;6.08;100.00;97900.63;4902533;29;20050;-96
2023/04/12 11:25:52;;;;;;;10.40;1.85;;;;;;;5.84;100.00;97868.31;4910895;29;20031;-96
2023/04/12 11:28:20;;;;;;;14.00;1.95;;;;;;;5.62;100.00;97904.22;4932611;29;20024;-94
2023/04/12 11:30:58;;;;;;;4.63;1.23;;;;;;;5.48;100.00;97907.84;4914965;29;20046;-96
2023/04/12 11:33:38;;;;;;;4.20;0.50;;;;;;;5.40;100.00;97902.50;4894802;29;20065;-96
2023/04/12 11:36:16;;;;;;;2.95;1.75;;;;;;;5.60;100.00;97931.66;4884422;29;20021;-95
2023/04/12 11:38:44;;;;;;;2.05;0.55;;;;;;;6.99;100.00;97886.38;4886388;29;20054;-95